createdAt,value
2022-08-07T00:00:26.218Z,20.29
2022-08-07T00:02:53.729Z,20.29
2022-08-07T00:05:23.771Z,20.27
2022-08-07T00:07:58.491Z,20.38
2022-08-07T00:10:30.545Z,20.25
2022-08-07T00:13:09.730Z,20.22
2022-08-07T00:15:51.192Z,20.19
2022-08-07T00:18:24.426Z,20.07
2022-08-07T00:21:01.366Z,20.09
2022-08-07T00:23:31.679Z,19.90
2022-08-07T00:26:13.300Z,19.94
2022-08-07T00:28:56.489Z,19.89
2022-08-07T00:31:26.008Z,19.86
2022-08-07T00:34:08.476Z,19.77
2022-08-07T00:36:42.577Z,19.78
2022-08-07T00:39:16.099Z,19.81
2022-08-07T00:42:01.827Z,19.76
2022-08-07T00:44:33.189Z,19.77
2022-08-07T00:47:01.609Z,19.81
2022-08-07T00:50:21.252Z,19.71
2022-08-07T00:52:17.613Z,19.79
2022-08-07T00:54:53.976Z,19.67
2022-08-07T00:57:25.816Z,19.65
2022-08-07T00:59:54.013Z,19.58
2022-08-07T01:02:28.569Z,19.58
2022-08-07T01:04:58.370Z,19.57
2022-08-07T01:07:29.241Z,19.59
2022-08-07T01:10:06.090Z,19.42
2022-08-07T01:12:53.125Z,19.62
2022-08-07T01:15:36.089Z,19.50
2022-08-07T01:18:10.645Z,19.50
2022-08-07T01:20:58.434Z,19.50
2022-08-07T01:23:38.078Z,19.60
2022-08-07T01:26:12.046Z,19.56
2022-08-07T01:28:46.177Z,19.53
2022-08-07T01:31:18.117Z,19.54
2022-08-07T01:33:56.108Z,19.61
2022-08-07T01:36:33.394Z,19.48
2022-08-07T01:39:01.443Z,19.52
2022-08-07T01:41:37.023Z,19.52
2022-08-07T01:44:06.006Z,19.54
2022-08-07T01:46:33.241Z,19.40
2022-08-07T01:49:00.186Z,19.34
2022-08-07T01:52:01.294Z,19.40
2022-08-07T01:54:21.859Z,19.50
2022-08-07T01:57:27.946Z,19.39
2022-08-07T02:00:13.024Z,19.41
2022-08-07T02:03:22.047Z,19.37
2022-08-07T02:06:01.196Z,19.29
2022-08-07T02:08:30.956Z,19.40
2022-08-07T02:11:00.117Z,19.32
2022-08-07T02:14:00.802Z,19.37
2022-08-07T02:16:19.946Z,19.28
2022-08-07T02:18:56.443Z,19.31
2022-08-07T02:21:24.916Z,19.24
2022-08-07T02:23:53.271Z,19.30
2022-08-07T02:26:33.885Z,19.29
2022-08-07T02:29:05.117Z,19.32
2022-08-07T02:31:41.248Z,19.14
2022-08-07T02:34:11.542Z,19.11
2022-08-07T02:36:45.982Z,19.05
2022-08-07T02:39:17.095Z,19.06
2022-08-07T02:42:03.496Z,18.88
2022-08-07T02:44:42.266Z,18.84
2022-08-07T02:47:19.240Z,18.91
2022-08-07T02:49:58.045Z,18.92
2022-08-07T02:52:48.652Z,18.80
2022-08-07T02:56:02.990Z,18.87
2022-08-07T02:58:21.490Z,18.74
2022-08-07T03:00:52.688Z,18.70
2022-08-07T03:03:22.805Z,18.73
2022-08-07T03:05:53.592Z,18.67
2022-08-07T03:08:26.815Z,18.63
2022-08-07T03:10:57.545Z,18.72
2022-08-07T03:13:25.431Z,18.47
2022-08-07T03:15:58.337Z,18.44
2022-08-07T03:18:34.337Z,18.42
2022-08-07T03:21:08.588Z,18.46
2022-08-07T03:24:20.524Z,18.52
2022-08-07T03:26:31.887Z,18.45
2022-08-07T03:29:03.129Z,18.41
2022-08-07T03:31:43.274Z,18.41
2022-08-07T03:34:18.214Z,18.41
2022-08-07T03:36:46.106Z,18.32
2022-08-07T03:39:17.623Z,18.48
2022-08-07T03:42:08.097Z,18.36
2022-08-07T03:44:36.880Z,18.25
2022-08-07T03:47:13.248Z,18.21
2022-08-07T03:49:52.166Z,18.42
2022-08-07T03:52:26.228Z,18.43
2022-08-07T03:55:06.260Z,18.46
2022-08-07T03:58:32.483Z,18.54
2022-08-07T04:00:29.243Z,18.43
2022-08-07T04:02:59.539Z,18.24
2022-08-07T04:05:40.322Z,18.24
2022-08-07T04:08:16.224Z,18.27
2022-08-07T04:10:53.931Z,18.40
2022-08-07T04:13:27.648Z,18.22
2022-08-07T04:15:55.071Z,18.17
2022-08-07T04:18:57.335Z,18.15
2022-08-07T04:21:09.148Z,18.09
2022-08-07T04:23:43.399Z,18.06
2022-08-07T04:26:24.076Z,18.04
2022-08-07T04:28:55.411Z,17.97
2022-08-07T04:31:39.043Z,18.13
2022-08-07T04:34:16.881Z,18.42
2022-08-07T04:36:45.365Z,18.58
2022-08-07T04:39:16.124Z,18.65
2022-08-07T04:41:50.327Z,18.66
2022-08-07T04:44:18.849Z,18.78
2022-08-07T04:47:23.638Z,18.99
2022-08-07T04:50:14.300Z,19.20
2022-08-07T04:52:50.942Z,19.42
2022-08-07T04:58:07.348Z,19.59
2022-08-07T04:59:09.130Z,19.93
2022-08-07T05:01:56.700Z,20.08
2022-08-07T05:04:50.123Z,20.34
2022-08-07T05:07:36.577Z,20.51
2022-08-07T05:10:14.337Z,20.63
2022-08-07T05:12:53.733Z,20.65
2022-08-07T05:15:27.307Z,20.85
2022-08-07T05:18:01.396Z,20.97
2022-08-07T05:20:38.258Z,21.21
2022-08-07T05:23:15.584Z,21.36
2022-08-07T05:26:13.071Z,21.39
2022-08-07T05:28:33.690Z,21.59
2022-08-07T05:31:01.537Z,21.98
2022-08-07T05:33:35.478Z,22.05
2022-08-07T05:36:07.736Z,22.18
2022-08-07T05:38:59.485Z,22.42
2022-08-07T05:42:00.294Z,22.79
2022-08-07T05:44:29.160Z,23.10
2022-08-07T05:46:58.227Z,23.47
2022-08-07T05:49:27.714Z,23.59
2022-08-07T05:52:08.400Z,24.03
2022-08-07T05:54:44.556Z,24.41
2022-08-07T05:57:22.151Z,25.03
2022-08-07T05:59:58.007Z,25.26
2022-08-07T06:02:29.677Z,25.71
2022-08-07T06:05:03.984Z,26.37
2022-08-07T06:08:14.034Z,26.69
2022-08-07T06:10:20.939Z,26.53
2022-08-07T06:12:49.935Z,27.34
2022-08-07T06:15:19.885Z,27.71
2022-08-07T06:17:53.527Z,28.13
2022-08-07T06:20:25.544Z,28.42
2022-08-07T06:23:46.680Z,29.30
2022-08-07T06:26:00.075Z,30.14
2022-08-07T06:28:28.567Z,30.88
2022-08-07T06:30:58.126Z,31.86
2022-08-07T06:33:26.522Z,32.69
2022-08-07T06:36:12.991Z,33.30
2022-08-07T06:38:58.439Z,33.74
2022-08-07T06:42:02.440Z,35.28
2022-08-07T06:44:33.953Z,35.77
2022-08-07T06:47:12.360Z,35.43
2022-08-07T06:49:51.049Z,36.21
2022-08-07T06:52:31.705Z,36.07
2022-08-07T06:55:53.646Z,37.54
2022-08-07T06:58:16.663Z,39.17
2022-08-07T07:00:53.009Z,39.62
2022-08-07T07:03:26.459Z,39.76
2022-08-07T07:06:11.360Z,39.58
2022-08-07T07:08:39.639Z,41.01
2022-08-07T07:12:08.161Z,41.41
2022-08-07T07:14:02.485Z,42.18
2022-08-07T07:16:45.140Z,43.34
2022-08-07T07:19:57.993Z,43.09
2022-08-07T07:22:39.865Z,43.62
2022-08-07T07:25:13.947Z,43.24
2022-08-07T07:28:03.159Z,43.37
2022-08-07T07:30:40.019Z,42.78
2022-08-07T07:33:12.024Z,42.72
2022-08-07T07:35:54.678Z,42.29
2022-08-07T07:38:35.807Z,41.85
2022-08-07T07:41:08.946Z,41.80
2022-08-07T07:43:47.936Z,42.18
2022-08-07T07:46:36.752Z,42.45
2022-08-07T07:50:33.818Z,42.96
2022-08-07T07:52:12.791Z,43.15
2022-08-07T07:54:50.871Z,42.84
2022-08-07T07:57:52.133Z,43.26
2022-08-07T08:00:18.298Z,41.90
2022-08-07T08:03:16.362Z,41.63
2022-08-07T08:05:54.152Z,40.90
2022-08-07T08:08:35.497Z,42.15
2022-08-07T08:11:16.383Z,43.08
2022-08-07T08:13:53.695Z,42.25
2022-08-07T08:16:29.659Z,43.23
2022-08-07T08:18:58.673Z,42.82
2022-08-07T08:22:07.882Z,44.46
2022-08-07T08:25:09.396Z,45.90
2022-08-07T08:27:56.617Z,45.59
2022-08-07T08:30:29.272Z,46.40
2022-08-07T08:33:03.158Z,47.13
2022-08-07T08:35:39.617Z,47.72
2022-08-07T08:38:17.316Z,48.41
2022-08-07T08:41:23.183Z,47.78
2022-08-07T08:44:19.090Z,49.43
2022-08-07T08:47:11.218Z,49.64
2022-08-07T08:50:11.081Z,49.27
2022-08-07T08:52:53.942Z,50.58
2022-08-07T08:55:58.489Z,48.96
2022-08-07T08:58:57.191Z,50.10
2022-08-07T09:01:29.976Z,51.55
2022-08-07T09:04:43.639Z,51.75
2022-08-07T09:07:57.716Z,52.22
2022-08-07T09:10:47.415Z,51.40
2022-08-07T09:13:53.598Z,51.17
2022-08-07T09:16:52.303Z,51.78
2022-08-07T09:20:00.506Z,51.68
2022-08-07T09:24:32.441Z,52.68
2022-08-07T09:25:54.723Z,51.88
2022-08-07T09:30:04.214Z,51.50
2022-08-07T09:31:50.718Z,52.53
2022-08-07T09:36:05.426Z,53.03
2022-08-07T09:38:14.092Z,52.73
2022-08-07T09:41:11.999Z,53.54
2022-08-07T09:44:30.125Z,53.51
2022-08-07T09:47:51.179Z,53.57
2022-08-07T09:50:41.415Z,53.07
2022-08-07T09:53:12.943Z,52.35
2022-08-07T09:56:13.694Z,51.64
2022-08-07T09:59:14.902Z,51.33
2022-08-07T10:02:13.695Z,52.57
2022-08-07T10:05:12.745Z,52.63
2022-08-07T10:08:21.783Z,52.05
2022-08-07T10:12:01.779Z,50.37
2022-08-07T10:14:55.191Z,51.51
2022-08-07T10:18:06.367Z,51.23
2022-08-07T10:21:14.923Z,49.02
2022-08-07T10:24:10.049Z,46.83
2022-08-07T10:27:10.527Z,44.31
2022-08-07T10:29:53.196Z,42.37
2022-08-07T10:33:00.201Z,38.83
2022-08-07T10:36:10.842Z,36.50
2022-08-07T10:39:04.434Z,34.45
2022-08-07T10:41:56.775Z,33.78
2022-08-07T10:45:19.398Z,32.77
2022-08-07T10:48:12.246Z,31.98
2022-08-07T10:50:50.831Z,31.31
2022-08-07T10:53:44.878Z,31.11
2022-08-07T10:56:44.097Z,30.22
2022-08-07T10:59:52.714Z,29.55
2022-08-07T11:02:59.977Z,29.81
2022-08-07T11:05:59.355Z,29.92
2022-08-07T11:08:54.214Z,29.68
2022-08-07T11:11:30.913Z,29.32
2022-08-07T11:14:43.826Z,28.84
2022-08-07T11:17:43.304Z,28.71
2022-08-07T11:20:24.539Z,28.68
2022-08-07T11:23:30.764Z,28.49
2022-08-07T11:26:33.827Z,28.17
2022-08-07T11:29:41.883Z,28.18
2022-08-07T11:32:16.610Z,28.15
2022-08-07T11:35:09.405Z,27.88
2022-08-07T11:38:10.253Z,27.68
2022-08-07T11:40:58.943Z,27.80
2022-08-07T11:44:12.186Z,27.52
2022-08-07T11:47:07.715Z,27.63
2022-08-07T11:50:25.496Z,27.68
2022-08-07T11:52:40.195Z,27.59
2022-08-07T11:56:13.954Z,27.55
2022-08-07T11:58:33.421Z,27.58
2022-08-07T12:01:20.236Z,27.46
2022-08-07T12:04:17.267Z,27.51
2022-08-07T12:07:00.322Z,27.40
2022-08-07T12:09:40.048Z,27.43
2022-08-07T12:12:12.018Z,27.41
2022-08-07T12:15:01.447Z,27.43
2022-08-07T12:17:39.529Z,27.39
2022-08-07T12:20:30.117Z,27.39
2022-08-07T12:24:07.615Z,27.49
2022-08-07T12:26:46.137Z,27.18
2022-08-07T12:29:38.639Z,27.18
2022-08-07T12:32:30.203Z,27.20
2022-08-07T12:35:02.891Z,27.29
2022-08-07T12:38:10.383Z,27.35
2022-08-07T12:40:47.962Z,27.39
2022-08-07T12:44:02.923Z,27.41
2022-08-07T12:46:34.495Z,27.24
2022-08-07T12:49:39.719Z,27.49
2022-08-07T12:52:17.943Z,27.51
2022-08-07T12:55:05.144Z,27.46
2022-08-07T12:57:39.276Z,27.43
2022-08-07T13:01:07.765Z,27.38
2022-08-07T13:04:35.192Z,27.52
2022-08-07T13:08:11.496Z,27.40
2022-08-07T13:10:54.472Z,27.38
2022-08-07T13:13:49.539Z,27.47
2022-08-07T13:16:36.757Z,27.49
2022-08-07T13:19:50.360Z,27.35
2022-08-07T13:22:32.219Z,27.43
2022-08-07T13:25:24.274Z,27.25
2022-08-07T13:28:13.339Z,27.22
2022-08-07T13:30:53.134Z,27.19
2022-08-07T13:34:31.338Z,27.32
2022-08-07T13:36:51.488Z,27.27
2022-08-07T13:40:34.368Z,27.30
2022-08-07T13:42:26.669Z,27.36
2022-08-07T13:45:20.864Z,27.31
2022-08-07T13:48:07.689Z,27.47
2022-08-07T13:50:44.959Z,27.44
2022-08-07T13:53:23.855Z,27.52
2022-08-07T13:55:54.565Z,27.52
2022-08-07T13:58:56.697Z,27.50
2022-08-07T14:01:27.544Z,27.44
2022-08-07T14:04:15.847Z,27.35
2022-08-07T14:06:50.200Z,27.29
2022-08-07T14:10:12.265Z,27.28
2022-08-07T14:12:58.642Z,27.40
2022-08-07T14:15:43.164Z,27.35
2022-08-07T14:18:29.920Z,27.17
2022-08-07T14:22:03.921Z,27.17
2022-08-07T14:24:50.050Z,27.30
2022-08-07T14:30:16.607Z,27.20
2022-08-07T14:33:04.682Z,27.30
2022-08-07T14:38:31.350Z,27.15
2022-08-07T14:41:12.424Z,27.24
2022-08-07T14:43:57.180Z,27.34
2022-08-07T14:46:32.002Z,27.34
2022-08-07T14:49:56.150Z,27.32
2022-08-07T14:52:04.820Z,27.26
2022-08-07T14:54:42.937Z,27.27
2022-08-07T14:57:19.393Z,27.25
2022-08-07T15:02:37.316Z,27.45
2022-08-07T15:05:20.343Z,27.48
2022-08-07T15:07:56.019Z,27.35
2022-08-07T15:10:30.078Z,27.46
2022-08-07T15:13:06.196Z,27.55
2022-08-07T15:15:43.020Z,27.54
2022-08-07T15:18:28.578Z,27.62
2022-08-07T15:21:58.804Z,27.61
2022-08-07T15:25:16.235Z,27.45
2022-08-07T15:27:15.552Z,27.42
2022-08-07T15:32:39.656Z,27.33
2022-08-07T15:35:16.700Z,27.39
2022-08-07T15:38:17.457Z,27.30
2022-08-07T15:40:37.909Z,27.21
2022-08-07T15:43:53.767Z,27.10
2022-08-07T15:49:17.357Z,27.29
2022-08-07T15:54:39.404Z,27.42
2022-08-07T15:57:40.171Z,27.41
2022-08-07T15:59:59.515Z,27.46
2022-08-07T16:02:41.149Z,27.43
2022-08-07T16:05:18.366Z,27.44
2022-08-07T16:08:30.359Z,27.48
2022-08-07T16:11:27.241Z,27.44
2022-08-07T16:14:02.819Z,27.30
2022-08-07T16:17:03.288Z,27.41
2022-08-07T16:19:59.120Z,27.46
2022-08-07T16:23:05.496Z,27.54
2022-08-07T16:26:00.431Z,27.44
2022-08-07T16:30:06.406Z,27.40
2022-08-07T16:32:25.489Z,27.40
2022-08-07T16:35:51.455Z,27.41
2022-08-07T16:38:59.972Z,27.36
2022-08-07T16:42:01.560Z,27.22
2022-08-07T16:45:24.567Z,27.25
2022-08-07T16:48:13.629Z,27.18
2022-08-07T16:51:52.041Z,27.20
2022-08-07T16:54:33.398Z,27.14
2022-08-07T16:57:28.837Z,27.15
2022-08-07T17:00:30.163Z,27.18
2022-08-07T17:03:58.493Z,27.16
2022-08-07T17:06:57.995Z,27.10
2022-08-07T17:10:07.048Z,27.09
2022-08-07T17:12:52.998Z,27.00
2022-08-07T17:16:03.302Z,26.91
2022-08-07T17:18:51.719Z,26.94
2022-08-07T17:21:50.652Z,26.94
2022-08-07T17:24:38.424Z,26.85
2022-08-07T17:27:19.661Z,26.87
2022-08-07T17:30:15.818Z,26.92
2022-08-07T17:34:09.247Z,26.88
2022-08-07T17:36:20.728Z,26.79
2022-08-07T17:39:57.884Z,26.85
2022-08-07T17:42:58.094Z,26.92
2022-08-07T17:45:39.010Z,26.97
2022-08-07T17:48:31.083Z,26.98
2022-08-07T17:51:23.082Z,26.89
2022-08-07T17:54:39.704Z,26.77
2022-08-07T17:57:58.679Z,26.72
2022-08-07T18:00:34.509Z,26.63
2022-08-07T18:04:04.110Z,26.55
2022-08-07T18:06:38.624Z,26.61
2022-08-07T18:09:08.615Z,26.50
2022-08-07T18:12:16.203Z,26.41
2022-08-07T18:14:46.242Z,26.36
2022-08-07T18:18:36.667Z,26.44
2022-08-07T18:21:09.922Z,26.38
2022-08-07T18:23:50.832Z,26.34
2022-08-07T18:27:17.438Z,26.30
2022-08-07T18:30:06.867Z,26.24
2022-08-07T18:33:12.161Z,26.21
2022-08-07T18:36:03.331Z,26.08
2022-08-07T18:38:58.182Z,26.03
2022-08-07T18:41:57.939Z,26.01
2022-08-07T18:45:40.124Z,25.98
2022-08-07T18:50:04.674Z,25.84
2022-08-07T18:52:37.946Z,25.81
2022-08-07T18:54:51.007Z,25.72
2022-08-07T18:57:59.592Z,25.72
2022-08-07T19:01:03.568Z,25.65
2022-08-07T19:04:09.929Z,25.60
2022-08-07T19:06:57.761Z,25.51
2022-08-07T19:10:14.808Z,25.56
2022-08-07T19:12:58.121Z,25.43
2022-08-07T19:16:04.462Z,25.47
2022-08-07T19:19:13.216Z,25.40
2022-08-07T19:22:07.133Z,25.28
2022-08-07T19:24:46.224Z,25.28
2022-08-07T19:28:57.546Z,25.17
2022-08-07T19:30:57.313Z,25.22
2022-08-07T19:33:10.206Z,25.13
2022-08-07T19:35:42.645Z,25.06
2022-08-07T19:38:16.966Z,25.01
2022-08-07T19:40:49.705Z,25.07
2022-08-07T19:43:43.661Z,24.99
2022-08-07T19:46:17.944Z,24.97
2022-08-07T19:48:53.520Z,24.95
2022-08-07T19:51:50.994Z,24.92
2022-08-07T19:54:34.442Z,24.91
2022-08-07T19:58:02.865Z,24.87
2022-08-07T19:59:59.883Z,24.82
2022-08-07T20:02:35.194Z,24.82
2022-08-07T20:05:10.027Z,24.78
2022-08-07T20:07:46.121Z,24.79
2022-08-07T20:10:36.108Z,24.73
2022-08-07T20:13:23.863Z,24.66
2022-08-07T20:15:57.701Z,24.71
2022-08-07T20:18:33.354Z,24.71
2022-08-07T20:21:14.234Z,24.67
2022-08-07T20:24:03.601Z,24.46
2022-08-07T20:26:44.843Z,24.42
2022-08-07T20:29:47.818Z,24.35
2022-08-07T20:32:11.566Z,24.35
2022-08-07T20:35:07.609Z,24.46
2022-08-07T20:37:46.823Z,24.33
2022-08-07T20:40:32.612Z,24.31
2022-08-07T20:43:03.174Z,24.30
2022-08-07T20:46:28.848Z,24.29
2022-08-07T20:48:30.242Z,24.29
2022-08-07T20:51:09.651Z,24.17
2022-08-07T20:54:02.967Z,24.12
2022-08-07T20:56:29.305Z,24.12
2022-08-07T20:59:01.909Z,24.03
2022-08-07T21:01:45.300Z,24.01
2022-08-07T21:04:21.652Z,24.00
2022-08-07T21:06:53.392Z,23.91
2022-08-07T21:09:24.698Z,23.89
2022-08-07T21:11:57.720Z,23.86
2022-08-07T21:14:36.683Z,23.85
2022-08-07T21:18:20.243Z,23.85
2022-08-07T21:20:04.962Z,23.77
2022-08-07T21:23:08.227Z,23.74
2022-08-07T21:26:03.576Z,23.65
2022-08-07T21:28:55.840Z,23.69
2022-08-07T21:32:42.970Z,23.76
2022-08-07T21:34:48.985Z,23.76
2022-08-07T21:37:58.308Z,23.65
2022-08-07T21:40:38.401Z,23.51
2022-08-07T21:43:36.679Z,23.63
2022-08-07T21:46:33.034Z,23.41
2022-08-07T21:49:25.561Z,23.43
2022-08-07T21:52:11.901Z,23.45
2022-08-07T21:54:54.263Z,23.44
2022-08-07T21:57:44.823Z,23.34
2022-08-07T22:00:24.874Z,23.34
2022-08-07T22:03:17.165Z,23.25
2022-08-07T22:06:30.796Z,23.19
2022-08-07T22:09:10.936Z,23.18
2022-08-07T22:12:05.286Z,23.09
2022-08-07T22:15:02.326Z,23.17
2022-08-07T22:17:40.963Z,23.14
2022-08-07T22:20:24.837Z,23.05
2022-08-07T22:23:17.846Z,23.04
2022-08-07T22:26:30.996Z,22.95
2022-08-07T22:29:13.778Z,22.93
2022-08-07T22:32:06.322Z,22.92
2022-08-07T22:34:53.724Z,22.81
2022-08-07T22:38:02.802Z,22.91
2022-08-07T22:40:53.515Z,22.86
2022-08-07T22:43:47.552Z,22.79
2022-08-07T22:47:03.937Z,22.73
2022-08-07T22:49:33.792Z,22.76
2022-08-07T22:52:47.410Z,22.81
2022-08-07T22:55:53.975Z,22.66
2022-08-07T22:58:52.337Z,22.80
2022-08-07T23:01:54.500Z,22.59
2022-08-07T23:06:10.026Z,22.57
2022-08-07T23:08:23.842Z,22.51
2022-08-07T23:11:29.097Z,22.45
2022-08-07T23:14:49.391Z,22.27
2022-08-07T23:17:31.238Z,22.22
2022-08-07T23:20:40.333Z,22.21
2022-08-07T23:24:06.858Z,22.24
2022-08-07T23:27:33.569Z,22.16
2022-08-07T23:30:37.207Z,22.13
2022-08-07T23:34:35.391Z,22.18
2022-08-07T23:38:00.518Z,22.06
2022-08-07T23:40:51.809Z,22.00
2022-08-07T23:44:01.028Z,21.90
2022-08-07T23:47:17.674Z,21.87
2022-08-07T23:50:02.051Z,21.79
2022-08-07T23:53:05.211Z,21.96
2022-08-07T23:56:14.163Z,21.84
